N4008U KMCO-KPGD
Flight info
| Callsign | N4008U |
|---|---|
| Flight time | 0h 20m |
| Altitude | 18000 |
| Route | FSHUN4 FSHUN ROGAN |
| Aircraft | CL60/M-SBDE1E2E3FGHIJ1J4J5J7M3RWXYZ/LB1V1D1 |
Departure
| Time | 2026-04-26 16:57 |
|---|---|
| Airport | Orlando International Airport (KMCO) |
Arrival
| Time | 2026-04-26 17:18 |
|---|---|
| Airport | Punta Gorda Airport (KPGD) |
| Time | Latitude | Longitude | Altitude | Speed | Heading |
|---|---|---|---|---|---|
| 2026-04-26 16:37 | 28.43235 | -81.33112 | 91 ft | 0 kts | 355° |
| 2026-04-26 16:52 | 28.43244 | -81.33113 | 91 ft | 4 kts | 355° |
| 2026-04-26 16:52 | 28.43304 | -81.33124 | 91 ft | 12 kts | 9° |
| 2026-04-26 16:53 | 28.43349 | -81.33041 | 92 ft | 14 kts | 94° |
| 2026-04-26 16:53 | 28.43356 | -81.32933 | 92 ft | 13 kts | 31° |
| 2026-04-26 16:53 | 28.43464 | -81.32928 | 91 ft | 17 kts | 0° |
| 2026-04-26 16:53 | 28.43592 | -81.32918 | 91 ft | 19 kts | 3° |
| 2026-04-26 16:54 | 28.43741 | -81.32918 | 90 ft | 22 kts | 353° |
| 2026-04-26 16:54 | 28.43899 | -81.32938 | 90 ft | 23 kts | 1° |
| 2026-04-26 16:54 | 28.44025 | -81.32891 | 90 ft | 19 kts | 28° |
| 2026-04-26 16:54 | 28.44163 | -81.32860 | 90 ft | 21 kts | 356° |
| 2026-04-26 16:55 | 28.44322 | -81.32855 | 90 ft | 23 kts | 359° |
| 2026-04-26 16:55 | 28.44494 | -81.32864 | 90 ft | 26 kts | 359° |
| 2026-04-26 16:55 | 28.44659 | -81.32867 | 90 ft | 15 kts | 1° |
| 2026-04-26 16:55 | 28.44775 | -81.32864 | 90 ft | 17 kts | 1° |
| 2026-04-26 16:56 | 28.44765 | -81.32695 | 90 ft | 15 kts | 168° |
| 2026-04-26 16:56 | 28.44594 | -81.32697 | 90 ft | 52 kts | 181° |
| 2026-04-26 16:56 | 28.43894 | -81.32697 | 90 ft | 140 kts | 179° |
| 2026-04-26 16:57 | 28.42738 | -81.32664 | 412 ft | 179 kts | 181° |
| 2026-04-26 16:57 | 28.41457 | -81.32579 | 1219 ft | 193 kts | 178° |
| 2026-04-26 16:57 | 28.38462 | -81.32533 | 2551 ft | 246 kts | 182° |
| 2026-04-26 16:58 | 28.36677 | -81.32528 | 3409 ft | 262 kts | 182° |
| 2026-04-26 16:58 | 28.35442 | -81.32522 | 4072 ft | 269 kts | 182° |
| 2026-04-26 16:58 | 28.30940 | -81.32472 | 6385 ft | 286 kts | 181° |
| 2026-04-26 16:59 | 28.28924 | -81.32436 | 6810 ft | 291 kts | 181° |
| 2026-04-26 16:59 | 28.24846 | -81.32672 | 7150 ft | 300 kts | 204° |
| 2026-04-26 17:00 | 28.21145 | -81.34679 | 9762 ft | 292 kts | 209° |
| 2026-04-26 17:00 | 28.17451 | -81.36656 | 11911 ft | 298 kts | 209° |
| 2026-04-26 17:00 | 28.15544 | -81.37679 | 12878 ft | 304 kts | 209° |
| 2026-04-26 17:01 | 28.13648 | -81.38696 | 13789 ft | 309 kts | 209° |
| 2026-04-26 17:01 | 28.11679 | -81.39754 | 14657 ft | 316 kts | 209° |
| 2026-04-26 17:01 | 28.09682 | -81.40826 | 15475 ft | 321 kts | 209° |
| 2026-04-26 17:01 | 28.07643 | -81.41921 | 16369 ft | 324 kts | 210° |
| 2026-04-26 17:02 | 28.05589 | -81.43021 | 17207 ft | 328 kts | 209° |
| 2026-04-26 17:02 | 28.03502 | -81.44142 | 17759 ft | 339 kts | 209° |
| 2026-04-26 17:02 | 28.01313 | -81.45316 | 17947 ft | 342 kts | 209° |
| 2026-04-26 17:02 | 27.99173 | -81.46460 | 17960 ft | 339 kts | 209° |
| 2026-04-26 17:03 | 27.97042 | -81.47601 | 17961 ft | 336 kts | 209° |
| 2026-04-26 17:03 | 27.94889 | -81.48753 | 17946 ft | 336 kts | 209° |
| 2026-04-26 17:03 | 27.92753 | -81.49896 | 17935 ft | 335 kts | 209° |
| 2026-04-26 17:03 | 27.90764 | -81.51235 | 17935 ft | 331 kts | 221° |
| 2026-04-26 17:04 | 27.88914 | -81.52829 | 17934 ft | 330 kts | 221° |
| 2026-04-26 17:04 | 27.87086 | -81.54401 | 17932 ft | 330 kts | 221° |
| 2026-04-26 17:04 | 27.85232 | -81.55994 | 17935 ft | 330 kts | 221° |
| 2026-04-26 17:04 | 27.83390 | -81.57573 | 17937 ft | 330 kts | 221° |
| 2026-04-26 17:05 | 27.81534 | -81.59165 | 17934 ft | 330 kts | 221° |
| 2026-04-26 17:05 | 27.79700 | -81.60737 | 17938 ft | 330 kts | 221° |
| 2026-04-26 17:05 | 27.77862 | -81.62310 | 17932 ft | 330 kts | 221° |
| 2026-04-26 17:05 | 27.76011 | -81.63895 | 17936 ft | 330 kts | 221° |
| 2026-04-26 17:06 | 27.74171 | -81.65468 | 17934 ft | 330 kts | 221° |
| 2026-04-26 17:06 | 27.72321 | -81.67049 | 17934 ft | 330 kts | 221° |
| 2026-04-26 17:06 | 27.70514 | -81.68592 | 17936 ft | 330 kts | 220° |
| 2026-04-26 17:06 | 27.68509 | -81.69940 | 17930 ft | 335 kts | 206° |
| 2026-04-26 17:07 | 27.66339 | -81.70915 | 17925 ft | 336 kts | 205° |
| 2026-04-26 17:07 | 27.64174 | -81.71873 | 17857 ft | 339 kts | 205° |
| 2026-04-26 17:07 | 27.61956 | -81.72858 | 17453 ft | 341 kts | 205° |
| 2026-04-26 17:07 | 27.59775 | -81.73827 | 17033 ft | 338 kts | 205° |
| 2026-04-26 17:08 | 27.57716 | -81.74742 | 16622 ft | 336 kts | 205° |
| 2026-04-26 17:08 | 27.55533 | -81.75713 | 16173 ft | 334 kts | 205° |
| 2026-04-26 17:08 | 27.53377 | -81.76671 | 15732 ft | 332 kts | 205° |
| 2026-04-26 17:08 | 27.51239 | -81.77622 | 15295 ft | 330 kts | 205° |
| 2026-04-26 17:09 | 27.49097 | -81.78574 | 14856 ft | 328 kts | 205° |
| 2026-04-26 17:09 | 27.47703 | -81.79195 | 14575 ft | 327 kts | 205° |
| 2026-04-26 17:09 | 27.44937 | -81.80424 | 13996 ft | 325 kts | 205° |
| 2026-04-26 17:09 | 27.42854 | -81.81350 | 13578 ft | 323 kts | 205° |
| 2026-04-26 17:10 | 27.40767 | -81.82278 | 13145 ft | 321 kts | 205° |
| 2026-04-26 17:10 | 27.38685 | -81.83202 | 12719 ft | 319 kts | 205° |
| 2026-04-26 17:10 | 27.36605 | -81.84127 | 12238 ft | 320 kts | 205° |
| 2026-04-26 17:10 | 27.34508 | -81.85060 | 11624 ft | 324 kts | 205° |
| 2026-04-26 17:11 | 27.32406 | -81.85997 | 10929 ft | 324 kts | 205° |
| 2026-04-26 17:11 | 27.30312 | -81.86929 | 10201 ft | 324 kts | 205° |
| 2026-04-26 17:11 | 27.28230 | -81.87858 | 9450 ft | 323 kts | 205° |
| 2026-04-26 17:11 | 27.26121 | -81.88783 | 8691 ft | 323 kts | 202° |
| 2026-04-26 17:12 | 27.21649 | -81.89086 | 7188 ft | 324 kts | 178° |
| 2026-04-26 17:12 | 27.19406 | -81.88937 | 6442 ft | 321 kts | 178° |
| 2026-04-26 17:13 | 27.15088 | -81.88662 | 4970 ft | 314 kts | 178° |
| 2026-04-26 17:13 | 27.12870 | -81.88522 | 4195 ft | 310 kts | 178° |
| 2026-04-26 17:13 | 27.08654 | -81.88515 | 3099 ft | 284 kts | 195° |
| 2026-04-26 17:14 | 27.06903 | -81.89306 | 2992 ft | 258 kts | 210° |
| 2026-04-26 17:14 | 27.03905 | -81.91172 | 2433 ft | 235 kts | 211° |
| 2026-04-26 17:14 | 27.02520 | -81.92035 | 2142 ft | 213 kts | 211° |
| 2026-04-26 17:15 | 27.00260 | -81.93441 | 1649 ft | 162 kts | 211° |
| 2026-04-26 17:15 | 26.99337 | -81.94011 | 1392 ft | 148 kts | 210° |
| 2026-04-26 17:15 | 26.98437 | -81.94498 | 1163 ft | 139 kts | 206° |
| 2026-04-26 17:16 | 26.97563 | -81.94983 | 1039 ft | 139 kts | 207° |
| 2026-04-26 17:16 | 26.96757 | -81.95454 | 965 ft | 138 kts | 214° |
| 2026-04-26 17:16 | 26.95995 | -81.96118 | 881 ft | 138 kts | 216° |
| 2026-04-26 17:16 | 26.95107 | -81.96600 | 713 ft | 139 kts | 206° |
| 2026-04-26 17:17 | 26.94260 | -81.97113 | 542 ft | 138 kts | 211° |
| 2026-04-26 17:17 | 26.93453 | -81.97661 | 311 ft | 133 kts | 213° |
| 2026-04-26 17:17 | 26.92677 | -81.98171 | 61 ft | 124 kts | 211° |
| 2026-04-26 17:17 | 26.91977 | -81.98591 | 24 ft | 100 kts | 213° |
| 2026-04-26 17:18 | 26.91518 | -81.98895 | 24 ft | 49 kts | 211° |
| 2026-04-26 17:18 | 26.91253 | -81.99069 | 24 ft | 38 kts | 212° |
| 2026-04-26 17:18 | 26.91058 | -81.99197 | 24 ft | 17 kts | 221° |
| 2026-04-26 17:18 | 26.91073 | -81.99246 | 24 ft | 8 kts | 328° |
| 2026-04-26 17:19 | 26.91202 | -81.99330 | 24 ft | 13 kts | 329° |
| 2026-04-26 17:19 | 26.91289 | -81.99386 | 24 ft | 15 kts | 329° |
| 2026-04-26 17:19 | 26.91389 | -81.99456 | 24 ft | 18 kts | 328° |
| 2026-04-26 17:20 | 26.91475 | -81.99530 | 24 ft | 10 kts | 270° |
| 2026-04-26 17:20 | 26.91473 | -81.99586 | 24 ft | 4 kts | 266° |
| 2026-04-26 17:20 | 26.91474 | -81.99571 | 24 ft | 2 kts | 53° |